sensor_id;sensor_type;location;lat;lon;timestamp;pressure;altitude;pressure_sealevel;temperature;humidity
80648;BME280;70012;0.000;0.000;2023-07-29T00:00:10;99904.84;;;18.33;86.33
80648;BME280;70012;0.000;0.000;2023-07-29T00:02:39;99905.00;;;18.36;86.40
80648;BME280;70012;0.000;0.000;2023-07-29T00:05:06;99901.91;;;18.38;85.73
80648;BME280;70012;0.000;0.000;2023-07-29T00:07:33;99903.56;;;18.39;85.81
80648;BME280;70012;0.000;0.000;2023-07-29T00:09:59;99898.03;;;18.39;85.63
80648;BME280;70012;0.000;0.000;2023-07-29T00:12:26;99896.88;;;18.40;85.98
80648;BME280;70012;0.000;0.000;2023-07-29T00:14:53;99890.22;;;18.41;86.13
80648;BME280;70012;0.000;0.000;2023-07-29T00:17:19;99894.13;;;18.40;85.77
80648;BME280;70012;0.000;0.000;2023-07-29T00:19:46;99891.19;;;18.45;85.43
80648;BME280;70012;0.000;0.000;2023-07-29T00:22:13;99874.09;;;18.43;85.84
80648;BME280;70012;0.000;0.000;2023-07-29T00:24:40;99886.31;;;18.42;85.75
80648;BME280;70012;0.000;0.000;2023-07-29T00:27:06;99879.13;;;18.41;85.60
80648;BME280;70012;0.000;0.000;2023-07-29T00:29:33;99890.22;;;18.41;85.60
80648;BME280;70012;0.000;0.000;2023-07-29T00:32:00;99891.19;;;18.45;85.59
80648;BME280;70012;0.000;0.000;2023-07-29T00:34:27;99882.88;;;18.45;86.06
80648;BME280;70012;0.000;0.000;2023-07-29T00:36:53;99881.25;;;18.44;85.64
80648;BME280;70012;0.000;0.000;2023-07-29T00:39:20;99888.94;;;18.47;85.35
80648;BME280;70012;0.000;0.000;2023-07-29T00:41:46;99879.50;;;18.48;85.56
80648;BME280;70012;0.000;0.000;2023-07-29T00:44:13;99875.59;;;18.49;85.52
80648;BME280;70012;0.000;0.000;2023-07-29T00:46:40;99889.31;;;18.54;85.91
80648;BME280;70012;0.000;0.000;2023-07-29T00:49:07;99882.31;;;18.57;85.52
80648;BME280;70012;0.000;0.000;2023-07-29T00:51:34;99878.69;;;18.56;85.09
80648;BME280;70012;0.000;0.000;2023-07-29T00:54:01;99872.53;;;18.60;85.30
80648;BME280;70012;0.000;0.000;2023-07-29T00:56:28;99866.47;;;18.58;85.62
80648;BME280;70012;0.000;0.000;2023-07-29T00:58:54;99866.47;;;18.58;85.46
80648;BME280;70012;0.000;0.000;2023-07-29T01:01:25;99860.47;;;18.55;85.62
80648;BME280;70012;0.000;0.000;2023-07-29T01:03:52;99862.06;;;18.56;85.04
80648;BME280;70012;0.000;0.000;2023-07-29T01:09:13;99860.47;;;18.55;84.47
80648;BME280;70012;0.000;0.000;2023-07-29T01:11:51;99861.59;;;18.54;85.06
80648;BME280;70012;0.000;0.000;2023-07-29T01:14:29;99846.25;;;18.48;85.08
80648;BME280;70012;0.000;0.000;2023-07-29T01:17:03;99845.41;;;18.48;85.77
80648;BME280;70012;0.000;0.000;2023-07-29T01:19:59;99844.59;;;18.47;85.59
80648;BME280;70012;0.000;0.000;2023-07-29T01:22:28;99851.78;;;18.48;85.58
80648;BME280;70012;0.000;0.000;2023-07-29T01:24:57;99842.97;;;18.46;85.31
80648;BME280;70012;0.000;0.000;2023-07-29T01:27:24;99840.69;;;18.48;85.52
80648;BME280;70012;0.000;0.000;2023-07-29T01:29:50;99840.38;;;18.50;85.41
80648;BME280;70012;0.000;0.000;2023-07-29T01:32:27;99840.69;;;18.48;85.62
80648;BME280;70012;0.000;0.000;2023-07-29T01:38:08;99841.69;;;18.52;85.27
80648;BME280;70012;0.000;0.000;2023-07-29T01:40:36;99847.22;;;18.52;85.12
80648;BME280;70012;0.000;0.000;2023-07-29T01:43:02;99838.41;;;18.50;85.15
80648;BME280;70012;0.000;0.000;2023-07-29T01:45:29;99848.22;;;18.56;85.34
80648;BME280;70012;0.000;0.000;2023-07-29T01:47:58;99831.59;;;18.56;85.67
80648;BME280;70012;0.000;0.000;2023-07-29T01:50:25;99838.75;;;18.58;85.38
80648;BME280;70012;0.000;0.000;2023-07-29T01:52:51;99834.84;;;18.59;84.83
80648;BME280;70012;0.000;0.000;2023-07-29T01:55:18;99828.19;;;18.60;85.56
80648;BME280;70012;0.000;0.000;2023-07-29T01:57:44;99829.31;;;18.59;85.34
80648;BME280;70012;0.000;0.000;2023-07-29T02:00:11;99831.75;;;18.60;85.33
80648;BME280;70012;0.000;0.000;2023-07-29T02:02:38;99824.59;;;18.59;85.16
80648;BME280;70012;0.000;0.000;2023-07-29T02:05:05;99829.81;;;18.61;85.28
80648;BME280;70012;0.000;0.000;2023-07-29T02:07:31;99825.41;;;18.60;85.40
80648;BME280;70012;0.000;0.000;2023-07-29T02:09:58;99827.06;;;18.61;84.91
80648;BME280;70012;0.000;0.000;2023-07-29T02:12:25;99830.31;;;18.63;85.44
80648;BME280;70012;0.000;0.000;2023-07-29T02:14:51;99827.56;;;18.63;85.36
80648;BME280;70012;0.000;0.000;2023-07-29T02:17:18;99837.47;;;18.64;85.67
80648;BME280;70012;0.000;0.000;2023-07-29T02:19:45;99833.72;;;18.60;85.52
80648;BME280;70012;0.000;0.000;2023-07-29T02:22:16;99834.22;;;18.62;85.81
80648;BME280;70012;0.000;0.000;2023-07-29T02:24:44;99831.75;;;18.60;85.53
80648;BME280;70012;0.000;0.000;2023-07-29T02:27:11;99830.78;;;18.56;85.30
80648;BME280;70012;0.000;0.000;2023-07-29T02:29:38;99831.09;;;18.54;85.72
80648;BME280;70012;0.000;0.000;2023-07-29T02:32:05;99828.34;;;18.54;85.37
80648;BME280;70012;0.000;0.000;2023-07-29T02:34:31;99836.97;;;18.53;85.50
80648;BME280;70012;0.000;0.000;2023-07-29T02:36:58;99839.88;;;18.48;85.59
80648;BME280;70012;0.000;0.000;2023-07-29T02:39:24;99846.25;;;18.48;85.76
80648;BME280;70012;0.000;0.000;2023-07-29T02:41:52;99856.00;;;18.46;86.65
80648;BME280;70012;0.000;0.000;2023-07-29T02:44:18;99849.78;;;18.40;86.10
80648;BME280;70012;0.000;0.000;2023-07-29T02:46:46;99845.69;;;18.37;85.07
80648;BME280;70012;0.000;0.000;2023-07-29T02:49:13;99830.34;;;18.31;85.30
80648;BME280;70012;0.000;0.000;2023-07-29T02:51:39;99850.69;;;18.27;85.43
80648;BME280;70012;0.000;0.000;2023-07-29T02:54:06;99843.78;;;18.15;85.69
80648;BME280;70012;0.000;0.000;2023-07-29T02:56:32;99840.81;;;18.12;85.96
80648;BME280;70012;0.000;0.000;2023-07-29T02:59:00;99838.50;;;18.05;85.74
80648;BME280;70012;0.000;0.000;2023-07-29T03:01:27;99840.88;;;17.98;85.93
80648;BME280;70012;0.000;0.000;2023-07-29T03:03:54;99828.28;;;17.91;86.16
80648;BME280;70012;0.000;0.000;2023-07-29T03:06:21;99831.38;;;17.90;86.31
80648;BME280;70012;0.000;0.000;2023-07-29T03:08:47;99822.25;;;17.89;86.49
80648;BME280;70012;0.000;0.000;2023-07-29T03:11:15;99819.50;;;17.89;86.78
80648;BME280;70012;0.000;0.000;2023-07-29T03:13:43;99830.56;;;17.89;86.63
80648;BME280;70012;0.000;0.000;2023-07-29T03:16:11;99833.44;;;17.84;86.72
80648;BME280;70012;0.000;0.000;2023-07-29T03:18:38;99848.41;;;17.83;87.06
80648;BME280;70012;0.000;0.000;2023-07-29T03:21:05;99832.75;;;17.79;86.80
80648;BME280;70012;0.000;0.000;2023-07-29T03:23:33;99844.97;;;17.77;86.83
80648;BME280;70012;0.000;0.000;2023-07-29T03:26:01;99848.06;;;17.76;87.46
80648;BME280;70012;0.000;0.000;2023-07-29T03:28:32;99852.44;;;17.77;87.32
80648;BME280;70012;0.000;0.000;2023-07-29T03:30:59;99862.00;;;17.71;87.58
80648;BME280;70012;0.000;0.000;2023-07-29T03:33:26;99867.03;;;17.69;87.76
80648;BME280;70012;0.000;0.000;2023-07-29T03:35:52;99849.94;;;17.67;88.09
80648;BME280;70012;0.000;0.000;2023-07-29T03:38:19;99852.69;;;17.67;88.37
80648;BME280;70012;0.000;0.000;2023-07-29T03:40:46;99845.50;;;17.66;88.01
80648;BME280;70012;0.000;0.000;2023-07-29T03:43:13;99838.00;;;17.66;88.18
80648;BME280;70012;0.000;0.000;2023-07-29T03:45:40;99838.84;;;17.67;88.18
80648;BME280;70012;0.000;0.000;2023-07-29T03:48:07;99837.22;;;17.66;88.62
80648;BME280;70012;0.000;0.000;2023-07-29T03:50:35;99836.59;;;17.69;88.58
80648;BME280;70012;0.000;0.000;2023-07-29T03:53:03;99817.69;;;17.71;88.98
80648;BME280;70012;0.000;0.000;2023-07-29T03:55:30;99821.59;;;17.70;88.99
80648;BME280;70012;0.000;0.000;2023-07-29T03:57:57;99830.41;;;17.72;88.96
80648;BME280;70012;0.000;0.000;2023-07-29T04:00:24;99844.59;;;17.70;88.71
80648;BME280;70012;0.000;0.000;2023-07-29T04:02:51;99842.63;;;17.71;88.65
80648;BME280;70012;0.000;0.000;2023-07-29T04:05:18;99847.66;;;17.69;88.88
80648;BME280;70012;0.000;0.000;2023-07-29T04:07:45;99845.00;;;17.64;88.41
80648;BME280;70012;0.000;0.000;2023-07-29T04:10:12;99852.81;;;17.62;88.62
80648;BME280;70012;0.000;0.000;2023-07-29T04:12:38;99845.66;;;17.60;88.76
80648;BME280;70012;0.000;0.000;2023-07-29T04:15:05;99850.16;;;17.56;88.76
80648;BME280;70012;0.000;0.000;2023-07-29T04:17:32;99844.25;;;17.49;88.38
80648;BME280;70012;0.000;0.000;2023-07-29T04:19:59;99846.63;;;17.42;88.59
80648;BME280;70012;0.000;0.000;2023-07-29T04:22:25;99858.81;;;17.41;89.09
80648;BME280;70012;0.000;0.000;2023-07-29T04:24:52;99844.78;;;17.37;89.14
80648;BME280;70012;0.000;0.000;2023-07-29T04:27:19;99842.81;;;17.38;88.98
80648;BME280;70012;0.000;0.000;2023-07-29T04:29:45;99847.56;;;17.37;89.29
80648;BME280;70012;0.000;0.000;2023-07-29T04:32:12;99845.91;;;17.36;89.23
80648;BME280;70012;0.000;0.000;2023-07-29T04:34:39;99863.13;;;17.33;89.23
80648;BME280;70012;0.000;0.000;2023-07-29T04:37:05;99867.03;;;17.32;89.72
80648;BME280;70012;0.000;0.000;2023-07-29T04:39:32;99859.66;;;17.27;89.68
80648;BME280;70012;0.000;0.000;2023-07-29T04:41:59;99865.59;;;17.35;89.69
80648;BME280;70012;0.000;0.000;2023-07-29T04:44:27;99860.69;;;17.32;89.57
80648;BME280;70012;0.000;0.000;2023-07-29T04:46:53;99868.06;;;17.36;89.69
80648;BME280;70012;0.000;0.000;2023-07-29T04:49:20;99876.03;;;17.38;89.67
80648;BME280;70012;0.000;0.000;2023-07-29T04:51:47;99880.97;;;17.41;89.83
80648;BME280;70012;0.000;0.000;2023-07-29T04:54:13;99880.97;;;17.41;89.64
80648;BME280;70012;0.000;0.000;2023-07-29T04:56:40;99879.31;;;17.40;89.37
80648;BME280;70012;0.000;0.000;2023-07-29T04:59:06;99871.53;;;17.42;89.55
80648;BME280;70012;0.000;0.000;2023-07-29T05:01:34;99868.97;;;17.46;89.60
80648;BME280;70012;0.000;0.000;2023-07-29T05:04:01;99879.72;;;17.47;89.65
80648;BME280;70012;0.000;0.000;2023-07-29T05:06:28;99879.72;;;17.47;89.66
80648;BME280;70012;0.000;0.000;2023-07-29T05:08:57;99876.44;;;17.45;89.06
80648;BME280;70012;0.000;0.000;2023-07-29T05:11:24;99878.06;;;17.46;89.12
80648;BME280;70012;0.000;0.000;2023-07-29T05:13:51;99878.06;;;17.46;89.21
80648;BME280;70012;0.000;0.000;2023-07-29T05:16:18;99872.53;;;17.46;89.14
80648;BME280;70012;0.000;0.000;2023-07-29T05:18:45;99870.78;;;17.50;89.23
80648;BME280;70012;0.000;0.000;2023-07-29T05:21:11;99870.47;;;17.52;89.66
80648;BME280;70012;0.000;0.000;2023-07-29T05:23:40;99862.97;;;17.52;89.57
80648;BME280;70012;0.000;0.000;2023-07-29T05:26:07;99864.50;;;17.58;89.22
80648;BME280;70012;0.000;0.000;2023-07-29T05:28:34;99869.44;;;17.62;89.26
80648;BME280;70012;0.000;0.000;2023-07-29T05:31:01;99881.50;;;17.66;89.78
80648;BME280;70012;0.000;0.000;2023-07-29T05:33:28;99888.47;;;17.63;89.54
80648;BME280;70012;0.000;0.000;2023-07-29T05:35:55;99893.69;;;17.65;89.04
80648;BME280;70012;0.000;0.000;2023-07-29T05:38:21;99901.69;;;17.66;88.79
80648;BME280;70012;0.000;0.000;2023-07-29T05:40:48;99890.31;;;17.68;88.88
80648;BME280;70012;0.000;0.000;2023-07-29T05:43:15;99890.72;;;17.75;89.05
80648;BME280;70012;0.000;0.000;2023-07-29T05:45:42;99880.63;;;17.79;88.58
80648;BME280;70012;0.000;0.000;2023-07-29T05:48:08;99887.81;;;17.80;88.36
80648;BME280;70012;0.000;0.000;2023-07-29T05:50:35;99883.91;;;17.81;88.07
80648;BME280;70012;0.000;0.000;2023-07-29T05:53:01;99888.81;;;17.84;88.14
80648;BME280;70012;0.000;0.000;2023-07-29T05:55:28;99895.66;;;17.87;88.87
80648;BME280;70012;0.000;0.000;2023-07-29T05:57:55;99905.00;;;17.91;88.80
80648;BME280;70012;0.000;0.000;2023-07-29T06:00:21;99905.22;;;17.95;89.40
80648;BME280;70012;0.000;0.000;2023-07-29T06:27:43;99952.19;;;18.22;86.75
80648;BME280;70012;0.000;0.000;2023-07-29T06:31:16;99954.97;;;18.22;87.22
80648;BME280;70012;0.000;0.000;2023-07-29T06:35:10;99964.78;;;18.29;86.99
80648;BME280;70012;0.000;0.000;2023-07-29T06:49:05;99951.03;;;18.46;86.78
80648;BME280;70012;0.000;0.000;2023-07-29T06:52:52;99951.59;;;18.57;87.57
80648;BME280;70012;0.000;0.000;2023-07-29T07:10:10;99962.47;;;19.08;83.40
80648;BME280;70012;0.000;0.000;2023-07-29T07:12:36;99963.31;;;19.08;83.23
80648;BME280;70012;0.000;0.000;2023-07-29T07:15:03;99963.50;;;19.12;82.61
80648;BME280;70012;0.000;0.000;2023-07-29T07:17:30;99959.75;;;19.16;82.52
80648;BME280;70012;0.000;0.000;2023-07-29T07:19:57;99972.34;;;19.23;83.82
80648;BME280;70012;0.000;0.000;2023-07-29T07:22:23;99959.13;;;19.28;82.99
80648;BME280;70012;0.000;0.000;2023-07-29T07:24:50;99959.66;;;19.39;83.02
80648;BME280;70012;0.000;0.000;2023-07-29T07:27:17;99959.50;;;19.44;82.71
80648;BME280;70012;0.000;0.000;2023-07-29T07:29:43;99963.91;;;19.45;81.93
80648;BME280;70012;0.000;0.000;2023-07-29T07:32:10;99957.72;;;19.48;79.18
80648;BME280;70012;0.000;0.000;2023-07-29T07:34:36;99964.41;;;19.47;79.49
80648;BME280;70012;0.000;0.000;2023-07-29T07:37:03;99973.41;;;19.53;80.05
80648;BME280;70012;0.000;0.000;2023-07-29T07:39:31;99974.06;;;19.59;79.82
80648;BME280;70012;0.000;0.000;2023-07-29T07:41:58;99977.84;;;19.63;79.99
80648;BME280;70012;0.000;0.000;2023-07-29T07:44:25;99982.41;;;19.67;79.38
80648;BME280;70012;0.000;0.000;2023-07-29T07:46:53;99966.59;;;19.77;78.93
80648;BME280;70012;0.000;0.000;2023-07-29T07:49:22;99964.97;;;19.84;78.60
80648;BME280;70012;0.000;0.000;2023-07-29T07:52:09;99949.50;;;19.83;76.97
80648;BME280;70012;0.000;0.000;2023-07-29T07:54:57;99956.50;;;19.90;77.37
80648;BME280;70012;0.000;0.000;2023-07-29T07:57:24;99957.31;;;19.99;76.89
80648;BME280;70012;0.000;0.000;2023-07-29T07:59:51;99959.28;;;20.07;77.52
80648;BME280;70012;0.000;0.000;2023-07-29T08:02:19;99962.91;;;20.17;76.53
80648;BME280;70012;0.000;0.000;2023-07-29T08:04:45;99952.59;;;20.17;75.08
80648;BME280;70012;0.000;0.000;2023-07-29T08:07:12;99955.84;;;20.19;74.69
80648;BME280;70012;0.000;0.000;2023-07-29T08:09:39;99966.97;;;20.19;74.81
80648;BME280;70012;0.000;0.000;2023-07-29T08:12:06;99970.91;;;20.18;74.15
80648;BME280;70012;0.000;0.000;2023-07-29T08:14:33;99969.91;;;20.14;72.94
80648;BME280;70012;0.000;0.000;2023-07-29T08:17:00;99969.41;;;20.21;73.77
80648;BME280;70012;0.000;0.000;2023-07-29T08:19:26;99976.28;;;20.32;74.54
80648;BME280;70012;0.000;0.000;2023-07-29T08:21:53;99961.88;;;20.47;73.54
80648;BME280;70012;0.000;0.000;2023-07-29T08:24:20;99965.16;;;20.50;70.39
80648;BME280;70012;0.000;0.000;2023-07-29T08:26:46;99964.81;;;20.51;68.72
80648;BME280;70012;0.000;0.000;2023-07-29T08:29:13;99962.19;;;20.37;68.46
80648;BME280;70012;0.000;0.000;2023-07-29T08:31:40;99970.72;;;20.32;67.06
80648;BME280;70012;0.000;0.000;2023-07-29T08:34:06;99978.25;;;20.23;68.11
80648;BME280;70012;0.000;0.000;2023-07-29T08:36:33;99983.47;;;20.15;68.03
80648;BME280;70012;0.000;0.000;2023-07-29T08:39:00;99978.56;;;20.21;67.61
80648;BME280;70012;0.000;0.000;2023-07-29T08:41:34;99984.13;;;20.12;68.59
80648;BME280;70012;0.000;0.000;2023-07-29T08:44:11;99970.41;;;20.07;68.57
80648;BME280;70012;0.000;0.000;2023-07-29T08:46:39;99985.09;;;19.99;69.18
80648;BME280;70012;0.000;0.000;2023-07-29T08:49:07;99975.97;;;19.90;68.74
80648;BME280;70012;0.000;0.000;2023-07-29T08:51:34;99981.16;;;19.82;69.35
80648;BME280;70012;0.000;0.000;2023-07-29T08:54:01;99980.16;;;19.78;69.09
80648;BME280;70012;0.000;0.000;2023-07-29T08:56:28;99984.72;;;19.74;69.37
80648;BME280;70012;0.000;0.000;2023-07-29T08:58:56;99981.09;;;19.65;69.15
80648;BME280;70012;0.000;0.000;2023-07-29T09:01:24;99984.38;;;19.67;69.64
80648;BME280;70012;0.000;0.000;2023-07-29T09:03:51;99989.44;;;19.65;69.40
80648;BME280;70012;0.000;0.000;2023-07-29T09:06:18;99988.28;;;19.66;68.99
80648;BME280;70012;0.000;0.000;2023-07-29T09:08:46;99989.94;;;19.67;69.27
80648;BME280;70012;0.000;0.000;2023-07-29T09:11:15;99995.50;;;19.67;68.55
80648;BME280;70012;0.000;0.000;2023-07-29T09:13:43;99991.56;;;19.68;69.86
80648;BME280;70012;0.000;0.000;2023-07-29T09:16:10;99993.38;;;19.73;71.38
80648;BME280;70012;0.000;0.000;2023-07-29T09:18:38;99992.06;;;19.70;72.68
80648;BME280;70012;0.000;0.000;2023-07-29T09:21:05;99992.09;;;19.79;73.66
80648;BME280;70012;0.000;0.000;2023-07-29T09:23:39;99996.03;;;19.87;74.35
80648;BME280;70012;0.000;0.000;2023-07-29T09:26:07;99995.41;;;19.98;73.56
80648;BME280;70012;0.000;0.000;2023-07-29T09:28:38;99995.75;;;20.06;73.22
80648;BME280;70012;0.000;0.000;2023-07-29T09:31:06;99991.00;;;20.06;71.08
80648;BME280;70012;0.000;0.000;2023-07-29T09:33:34;99992.97;;;20.14;72.12
80648;BME280;70012;0.000;0.000;2023-07-29T09:36:09;100000.97;;;20.16;70.23
80648;BME280;70012;0.000;0.000;2023-07-29T09:38:36;99995.06;;;20.18;70.77
80648;BME280;70012;0.000;0.000;2023-07-29T09:41:03;99995.91;;;20.18;70.04
80648;BME280;70012;0.000;0.000;2023-07-29T09:43:31;99989.03;;;20.15;70.15
80648;BME280;70012;0.000;0.000;2023-07-29T09:46:03;100002.25;;;20.19;70.49
80648;BME280;70012;0.000;0.000;2023-07-29T09:48:34;99993.75;;;20.15;69.34
80648;BME280;70012;0.000;0.000;2023-07-29T09:51:14;99998.69;;;20.09;70.13
80648;BME280;70012;0.000;0.000;2023-07-29T09:53:46;99992.78;;;20.11;69.43
80648;BME280;70012;0.000;0.000;2023-07-29T09:56:14;99999.50;;;20.19;72.22
80648;BME280;70012;0.000;0.000;2023-07-29T09:58:42;100000.50;;;20.23;72.35
80648;BME280;70012;0.000;0.000;2023-07-29T10:01:10;100006.50;;;20.25;73.05
80648;BME280;70012;0.000;0.000;2023-07-29T10:03:37;100002.75;;;20.21;73.09
80648;BME280;70012;0.000;0.000;2023-07-29T10:06:05;100011.09;;;20.21;70.42
80648;BME280;70012;0.000;0.000;2023-07-29T10:08:33;100011.91;;;20.21;70.09
80648;BME280;70012;0.000;0.000;2023-07-29T10:11:14;100016.66;;;20.21;69.40
80648;BME280;70012;0.000;0.000;2023-07-29T10:13:49;100015.69;;;20.17;68.66
80648;BME280;70012;0.000;0.000;2023-07-29T10:16:35;100018.94;;;20.10;70.19
80648;BME280;70012;0.000;0.000;2023-07-29T10:19:03;100030.84;;;20.02;71.49
80648;BME280;70012;0.000;0.000;2023-07-29T10:21:31;100032.66;;;19.97;73.11
80648;BME280;70012;0.000;0.000;2023-07-29T10:24:01;100036.25;;;19.98;74.92
80648;BME280;70012;0.000;0.000;2023-07-29T10:26:30;100030.84;;;19.93;75.83
80648;BME280;70012;0.000;0.000;2023-07-29T10:28:59;100033.78;;;19.88;75.89
80648;BME280;70012;0.000;0.000;2023-07-29T10:31:32;100033.63;;;19.84;77.16
80648;BME280;70012;0.000;0.000;2023-07-29T10:33:59;100030.50;;;19.86;77.75
80648;BME280;70012;0.000;0.000;2023-07-29T10:36:27;100037.38;;;19.88;78.79
80648;BME280;70012;0.000;0.000;2023-07-29T10:38:54;100041.63;;;19.86;78.26
80648;BME280;70012;0.000;0.000;2023-07-29T10:41:21;100028.50;;;19.77;77.70
80648;BME280;70012;0.000;0.000;2023-07-29T10:43:48;100044.53;;;19.80;79.19
80648;BME280;70012;0.000;0.000;2023-07-29T10:46:16;100049.09;;;19.76;78.85
80648;BME280;70012;0.000;0.000;2023-07-29T10:48:55;100038.63;;;19.73;79.12
80648;BME280;70012;0.000;0.000;2023-07-29T10:51:28;100038.16;;;19.80;80.78
80648;BME280;70012;0.000;0.000;2023-07-29T10:56:34;100036.69;;;19.82;81.92
80648;BME280;70012;0.000;0.000;2023-07-29T10:59:30;100040.66;;;19.90;82.54
80648;BME280;70012;0.000;0.000;2023-07-29T11:01:58;100033.97;;;19.91;82.77
80648;BME280;70012;0.000;0.000;2023-07-29T11:04:26;100035.09;;;19.99;81.91
80648;BME280;70012;0.000;0.000;2023-07-29T11:12:59;100036.91;;;20.12;79.11
80648;BME280;70012;0.000;0.000;2023-07-29T11:17:52;100041.16;;;20.10;79.75
80648;BME280;70012;0.000;0.000;2023-07-29T11:20:20;100049.84;;;20.08;79.34
80648;BME280;70012;0.000;0.000;2023-07-29T11:22:48;100030.38;;;20.17;80.62
80648;BME280;70012;0.000;0.000;2023-07-29T11:25:16;100031.22;;;20.35;81.19
80648;BME280;70012;0.000;0.000;2023-07-29T11:27:43;100024.34;;;20.41;79.12
80648;BME280;70012;0.000;0.000;2023-07-29T11:30:11;100028.41;;;20.53;78.83
80648;BME280;70012;0.000;0.000;2023-07-29T11:32:39;100019.25;;;20.70;79.79
80648;BME280;70012;0.000;0.000;2023-07-29T11:35:09;100010.09;;;20.78;77.40
80648;BME280;70012;0.000;0.000;2023-07-29T11:37:39;100020.69;;;20.85;76.49
80648;BME280;70012;0.000;0.000;2023-07-29T11:40:07;100015.47;;;20.83;74.28
80648;BME280;70012;0.000;0.000;2023-07-29T11:42:37;100012.06;;;20.86;74.26
80648;BME280;70012;0.000;0.000;2023-07-29T11:45:04;100005.94;;;21.02;74.26
80648;BME280;70012;0.000;0.000;2023-07-29T11:47:33;100006.25;;;21.48;75.71
80648;BME280;70012;0.000;0.000;2023-07-29T11:50:10;99997.22;;;22.02;72.45
80648;BME280;70012;0.000;0.000;2023-07-29T11:52:41;100000.16;;;22.48;73.34
80648;BME280;70012;0.000;0.000;2023-07-29T11:55:08;99998.56;;;22.93;70.79
80648;BME280;70012;0.000;0.000;2023-07-29T11:57:36;99984.78;;;23.21;67.49
80648;BME280;70012;0.000;0.000;2023-07-29T12:00:08;99993.38;;;23.53;68.62
80648;BME280;70012;0.000;0.000;2023-07-29T12:02:39;99982.22;;;23.78;64.06
80648;BME280;70012;0.000;0.000;2023-07-29T12:05:07;99979.63;;;23.73;63.10
80648;BME280;70012;0.000;0.000;2023-07-29T12:07:35;99978.47;;;23.74;64.40
80648;BME280;70012;0.000;0.000;2023-07-29T12:10:03;99981.25;;;23.74;65.94
80648;BME280;70012;0.000;0.000;2023-07-29T12:12:30;99970.63;;;23.92;63.38
80648;BME280;70012;0.000;0.000;2023-07-29T12:14:57;99970.94;;;24.15;64.61
80648;BME280;70012;0.000;0.000;2023-07-29T12:17:23;99980.66;;;24.34;63.18
80648;BME280;70012;0.000;0.000;2023-07-29T12:19:54;99970.97;;;24.59;61.88
80648;BME280;70012;0.000;0.000;2023-07-29T12:22:21;99968.69;;;24.77;60.70
80648;BME280;70012;0.000;0.000;2023-07-29T12:24:50;99963.94;;;24.94;59.36
80648;BME280;70012;0.000;0.000;2023-07-29T12:27:17;99963.56;;;24.96;58.41
80648;BME280;70012;0.000;0.000;2023-07-29T12:29:44;99964.41;;;25.12;57.48
80648;BME280;70012;0.000;0.000;2023-07-29T12:32:13;99962.47;;;25.32;57.27
80648;BME280;70012;0.000;0.000;2023-07-29T12:34:40;99971.25;;;25.47;58.36
80648;BME280;70012;0.000;0.000;2023-07-29T12:37:07;99964.56;;;25.51;57.93
80648;BME280;70012;0.000;0.000;2023-07-29T12:39:39;99966.72;;;25.42;56.09
80648;BME280;70012;0.000;0.000;2023-07-29T12:42:06;99964.31;;;25.40;56.61
80648;BME280;70012;0.000;0.000;2023-07-29T12:44:34;99964.00;;;25.30;54.36
80648;BME280;70012;0.000;0.000;2023-07-29T12:47:02;99942.31;;;25.26;54.51
80648;BME280;70012;0.000;0.000;2023-07-29T12:49:29;99937.72;;;25.34;55.32
80648;BME280;70012;0.000;0.000;2023-07-29T12:51:57;99939.50;;;25.26;52.76
80648;BME280;70012;0.000;0.000;2023-07-29T12:54:24;99939.00;;;25.21;53.74
80648;BME280;70012;0.000;0.000;2023-07-29T12:56:51;99931.50;;;25.09;53.38
80648;BME280;70012;0.000;0.000;2023-07-29T12:59:17;99937.66;;;24.99;56.20
80648;BME280;70012;0.000;0.000;2023-07-29T13:01:44;99934.94;;;24.86;57.23
80648;BME280;70012;0.000;0.000;2023-07-29T13:04:11;99930.00;;;24.51;53.08
80648;BME280;70012;0.000;0.000;2023-07-29T13:06:37;99945.03;;;24.30;55.30
80648;BME280;70012;0.000;0.000;2023-07-29T13:09:05;99946.47;;;24.12;58.78
80648;BME280;70012;0.000;0.000;2023-07-29T13:11:32;99949.78;;;23.89;59.99
80648;BME280;70012;0.000;0.000;2023-07-29T13:13:59;99941.91;;;23.66;58.11
80648;BME280;70012;0.000;0.000;2023-07-29T13:16:29;99953.59;;;23.56;59.27
80648;BME280;70012;0.000;0.000;2023-07-29T13:18:56;99938.38;;;23.41;61.41
80648;BME280;70012;0.000;0.000;2023-07-29T13:21:23;99935.00;;;23.23;62.18
80648;BME280;70012;0.000;0.000;2023-07-29T13:23:51;99928.69;;;23.01;64.07
80648;BME280;70012;0.000;0.000;2023-07-29T13:26:18;99934.59;;;22.88;64.12
80648;BME280;70012;0.000;0.000;2023-07-29T13:28:45;99931.88;;;22.66;66.09
80648;BME280;70012;0.000;0.000;2023-07-29T13:31:12;99949.06;;;22.56;68.55
80648;BME280;70012;0.000;0.000;2023-07-29T13:33:39;99938.56;;;22.41;70.58
80648;BME280;70012;0.000;0.000;2023-07-29T13:36:06;99944.28;;;22.23;67.56
80648;BME280;70012;0.000;0.000;2023-07-29T13:38:35;99947.94;;;22.15;69.30
80648;BME280;70012;0.000;0.000;2023-07-29T13:41:02;99945.25;;;22.06;70.90
80648;BME280;70012;0.000;0.000;2023-07-29T13:43:29;99949.06;;;22.01;72.01
80648;BME280;70012;0.000;0.000;2023-07-29T13:45:55;99960.41;;;21.96;73.85
80648;BME280;70012;0.000;0.000;2023-07-29T13:48:23;99958.28;;;21.93;74.97
80648;BME280;70012;0.000;0.000;2023-07-29T13:50:49;99958.72;;;21.83;72.09
80648;BME280;70012;0.000;0.000;2023-07-29T13:53:17;99958.44;;;21.75;71.14
80648;BME280;70012;0.000;0.000;2023-07-29T13:55:45;99965.22;;;21.66;71.33
80648;BME280;70012;0.000;0.000;2023-07-29T13:58:11;99973.63;;;21.57;71.70
80648;BME280;70012;0.000;0.000;2023-07-29T14:00:38;99972.47;;;21.49;72.30
80648;BME280;70012;0.000;0.000;2023-07-29T14:03:05;99963.22;;;21.36;71.45
80648;BME280;70012;0.000;0.000;2023-07-29T14:05:32;99961.97;;;21.25;71.97
80648;BME280;70012;0.000;0.000;2023-07-29T14:07:58;99959.06;;;21.13;72.80
80648;BME280;70012;0.000;0.000;2023-07-29T14:10:28;99964.69;;;21.04;73.41
80648;BME280;70012;0.000;0.000;2023-07-29T14:12:55;99975.16;;;20.98;74.08
80648;BME280;70012;0.000;0.000;2023-07-29T14:15:21;99970.94;;;20.92;74.42
80648;BME280;70012;0.000;0.000;2023-07-29T14:17:49;99961.81;;;20.83;73.93
80648;BME280;70012;0.000;0.000;2023-07-29T14:20:15;99957.59;;;20.76;72.67
80648;BME280;70012;0.000;0.000;2023-07-29T14:22:43;99955.63;;;20.68;74.13
80648;BME280;70012;0.000;0.000;2023-07-29T14:25:10;99957.59;;;20.59;73.25